createdAt,value
2017-12-25T00:00:24.381Z,8.68
2017-12-25T00:01:24.357Z,8.77
2017-12-25T00:02:24.335Z,8.71
2017-12-25T00:03:24.314Z,8.66
2017-12-25T00:04:24.301Z,8.73
2017-12-25T00:05:24.279Z,8.76
2017-12-25T00:06:24.259Z,8.70
2017-12-25T00:07:24.240Z,8.81
2017-12-25T00:08:24.218Z,8.68
2017-12-25T00:09:24.197Z,8.66
2017-12-25T00:10:24.186Z,8.66
2017-12-25T00:11:24.171Z,8.68
2017-12-25T00:12:24.144Z,8.71
2017-12-25T00:13:24.122Z,8.63
2017-12-25T00:14:24.098Z,8.71
2017-12-25T00:15:24.083Z,8.71
2017-12-25T00:16:24.064Z,8.70
2017-12-25T00:17:24.043Z,8.74
2017-12-25T00:18:24.026Z,8.73
2017-12-25T00:19:24.006Z,8.76
2017-12-25T00:20:23.991Z,8.62
2017-12-25T00:21:23.971Z,8.66
2017-12-25T00:22:23.948Z,8.65
2017-12-25T00:23:23.932Z,8.62
2017-12-25T00:24:23.906Z,8.66
2017-12-25T00:25:23.887Z,8.65
2017-12-25T00:26:23.865Z,8.65
2017-12-25T00:27:23.848Z,8.61
2017-12-25T00:28:23.829Z,8.62
2017-12-25T00:29:23.815Z,8.62
2017-12-25T00:30:23.793Z,8.55
2017-12-25T00:31:23.773Z,8.61
2017-12-25T00:32:23.757Z,8.56
2017-12-25T00:33:23.732Z,8.58
2017-12-25T00:34:23.720Z,8.45
2017-12-25T00:35:23.692Z,8.48
2017-12-25T00:36:23.679Z,8.44
2017-12-25T00:37:23.661Z,8.41
2017-12-25T00:38:23.638Z,8.47
2017-12-25T00:39:23.628Z,8.45
2017-12-25T00:40:23.600Z,8.38
2017-12-25T00:41:23.575Z,8.38
2017-12-25T00:42:23.568Z,8.44
2017-12-25T00:43:23.536Z,8.38
2017-12-25T00:44:23.520Z,8.38
2017-12-25T00:45:23.501Z,8.45
2017-12-25T00:46:23.478Z,8.38
2017-12-25T00:47:23.459Z,8.37
2017-12-25T00:48:23.440Z,8.44
2017-12-25T00:49:23.415Z,8.34
2017-12-25T00:50:23.407Z,8.38
2017-12-25T00:51:23.381Z,8.44
2017-12-25T00:52:23.362Z,8.44
2017-12-25T00:53:23.343Z,8.37
2017-12-25T00:54:23.320Z,8.38
2017-12-25T00:55:23.303Z,8.47
2017-12-25T00:56:23.290Z,8.36
2017-12-25T00:57:23.256Z,8.37
2017-12-25T00:58:23.241Z,8.40
2017-12-25T00:59:23.226Z,8.37
2017-12-25T01:00:23.199Z,8.36
2017-12-25T01:01:23.189Z,8.37
2017-12-25T01:02:23.163Z,8.36
2017-12-25T01:03:23.144Z,8.43
2017-12-25T01:04:23.131Z,8.41
2017-12-25T01:05:23.106Z,8.43
2017-12-25T01:06:23.084Z,8.43
2017-12-25T01:07:23.062Z,8.43
2017-12-25T01:08:23.045Z,8.41
2017-12-25T01:09:23.019Z,8.43
2017-12-25T01:10:23.003Z,8.38
2017-12-25T01:11:22.992Z,8.41
2017-12-25T01:12:22.970Z,8.44
2017-12-25T01:13:22.949Z,8.50
2017-12-25T01:14:22.925Z,8.48
2017-12-25T01:15:22.913Z,8.43
2017-12-25T01:16:22.886Z,8.38
2017-12-25T01:17:22.863Z,8.53
2017-12-25T01:18:22.849Z,8.50
2017-12-25T01:19:22.825Z,8.50
2017-12-25T01:20:22.809Z,8.43
2017-12-25T01:21:22.790Z,8.50
2017-12-25T01:22:22.765Z,8.53
2017-12-25T01:23:22.749Z,8.58
2017-12-25T01:24:22.726Z,8.55
2017-12-25T01:25:22.710Z,8.58
2017-12-25T01:26:22.686Z,8.56
2017-12-25T01:27:22.668Z,8.58
2017-12-25T01:28:22.646Z,8.53
2017-12-25T01:29:22.630Z,8.55
2017-12-25T01:30:22.618Z,8.56
2017-12-25T01:31:22.591Z,8.45
2017-12-25T01:32:22.577Z,8.56
2017-12-25T01:33:22.549Z,8.56
2017-12-25T01:34:22.536Z,8.55
2017-12-25T01:35:22.512Z,8.55
2017-12-25T01:36:22.498Z,8.58
2017-12-25T01:37:22.472Z,8.58
2017-12-25T01:38:22.463Z,8.58
2017-12-25T01:39:22.432Z,8.56
2017-12-25T01:40:22.415Z,8.58
2017-12-25T01:41:22.396Z,8.58
2017-12-25T01:42:22.383Z,8.53
2017-12-25T01:43:22.354Z,8.63
2017-12-25T01:44:22.339Z,8.59
2017-12-25T01:45:22.323Z,8.59
2017-12-25T01:46:22.303Z,8.65
2017-12-25T01:47:22.274Z,8.55
2017-12-25T01:48:22.259Z,8.65
2017-12-25T01:49:22.236Z,8.55
2017-12-25T01:50:22.225Z,8.65
2017-12-25T01:51:22.195Z,8.56
2017-12-25T01:52:22.177Z,8.63
2017-12-25T01:53:22.167Z,8.65
2017-12-25T01:54:22.142Z,8.63
2017-12-25T01:55:22.120Z,8.55
2017-12-25T01:56:22.098Z,8.61
2017-12-25T01:57:22.083Z,8.55
2017-12-25T01:58:22.066Z,8.61
2017-12-25T01:59:22.042Z,8.61
2017-12-25T02:00:22.021Z,8.68
2017-12-25T02:01:21.998Z,8.63
2017-12-25T02:02:21.981Z,8.66
2017-12-25T02:03:21.965Z,8.59
2017-12-25T02:04:21.944Z,8.68
2017-12-25T02:05:21.926Z,8.71
2017-12-25T02:06:21.905Z,8.65
2017-12-25T02:07:21.888Z,8.65
2017-12-25T02:08:21.864Z,8.66
2017-12-25T02:09:21.847Z,8.68
2017-12-25T02:10:21.832Z,8.74
2017-12-25T02:11:21.806Z,8.62
2017-12-25T02:12:21.787Z,8.70
2017-12-25T02:13:21.777Z,8.61
2017-12-25T02:14:21.745Z,8.61
2017-12-25T02:15:21.730Z,8.68
2017-12-25T02:16:21.709Z,8.61
2017-12-25T02:17:21.688Z,8.63
2017-12-25T02:18:21.666Z,8.56
2017-12-25T02:19:21.650Z,8.58
2017-12-25T02:20:21.627Z,8.68
2017-12-25T02:21:21.608Z,8.63
2017-12-25T02:22:21.596Z,8.65
2017-12-25T02:23:21.584Z,8.55
2017-12-25T02:24:21.554Z,8.59
2017-12-25T02:25:21.531Z,8.65
2017-12-25T02:26:21.514Z,8.61
2017-12-25T02:27:21.499Z,8.58
2017-12-25T02:28:21.479Z,8.63
2017-12-25T02:29:21.457Z,8.63
2017-12-25T02:30:21.440Z,8.62
2017-12-25T02:31:21.420Z,8.58
2017-12-25T02:32:21.401Z,8.59
2017-12-25T02:33:21.381Z,8.63
2017-12-25T02:34:21.362Z,8.61
2017-12-25T02:35:21.343Z,8.62
2017-12-25T02:36:21.320Z,8.53
2017-12-25T02:37:21.303Z,8.48
2017-12-25T02:38:21.281Z,8.53
2017-12-25T02:39:21.262Z,8.50
2017-12-25T02:40:21.244Z,8.48
2017-12-25T02:41:21.221Z,8.45
2017-12-25T02:42:21.209Z,8.40
2017-12-25T02:43:21.194Z,8.37
2017-12-25T02:44:21.167Z,8.40
2017-12-25T02:45:21.144Z,8.40
2017-12-25T02:46:21.142Z,8.38
2017-12-25T02:47:21.103Z,8.38
2017-12-25T02:48:21.087Z,8.41
2017-12-25T02:49:21.070Z,8.43
2017-12-25T02:50:21.050Z,8.38
2017-12-25T02:51:21.029Z,8.33
2017-12-25T02:52:21.007Z,8.29
2017-12-25T02:53:20.991Z,8.37
2017-12-25T02:54:20.969Z,8.36
2017-12-25T02:55:20.959Z,8.34
2017-12-25T02:56:20.928Z,8.34
2017-12-25T02:57:20.912Z,8.33
2017-12-25T02:58:20.890Z,8.36
2017-12-25T02:59:20.869Z,8.26
2017-12-25T03:00:20.848Z,8.36
2017-12-25T03:01:20.835Z,8.30
2017-12-25T03:02:20.809Z,8.26
2017-12-25T03:03:20.794Z,8.20
2017-12-25T03:04:20.773Z,8.26
2017-12-25T03:05:20.762Z,8.28
2017-12-25T03:06:20.738Z,8.22
2017-12-25T03:07:20.714Z,8.22
2017-12-25T03:08:20.698Z,8.20
2017-12-25T03:09:20.674Z,8.22
2017-12-25T03:10:20.655Z,8.26
2017-12-25T03:11:20.633Z,8.26
2017-12-25T03:12:20.622Z,8.26
2017-12-25T03:13:20.603Z,8.26
2017-12-25T03:14:20.579Z,8.33
2017-12-25T03:15:20.560Z,8.22
2017-12-25T03:16:20.537Z,8.23
2017-12-25T03:17:20.525Z,8.28
2017-12-25T03:18:20.502Z,8.18
2017-12-25T03:19:20.478Z,8.19
2017-12-25T03:20:20.467Z,8.16
2017-12-25T03:21:20.441Z,8.19
2017-12-25T03:22:20.428Z,8.18
2017-12-25T03:23:20.400Z,8.25
2017-12-25T03:24:20.390Z,8.25
2017-12-25T03:25:20.369Z,8.10
2017-12-25T03:26:20.346Z,8.26
2017-12-25T03:27:20.326Z,8.11
2017-12-25T03:28:20.307Z,8.10
2017-12-25T03:29:20.284Z,8.07
2017-12-25T03:30:20.272Z,8.12
2017-12-25T03:31:20.247Z,8.15
2017-12-25T03:32:20.228Z,8.12
2017-12-25T03:33:20.208Z,8.10
2017-12-25T03:34:20.188Z,8.12
2017-12-25T03:35:20.167Z,8.20
2017-12-25T03:36:20.150Z,8.10
2017-12-25T03:37:20.128Z,8.20
2017-12-25T03:38:20.109Z,8.07
2017-12-25T03:39:20.090Z,8.19
2017-12-25T03:40:20.068Z,8.20
2017-12-25T03:41:20.049Z,8.10
2017-12-25T03:42:20.033Z,8.16
2017-12-25T03:43:20.014Z,8.16
2017-12-25T03:44:19.995Z,8.11
2017-12-25T03:45:19.972Z,8.12
2017-12-25T03:46:19.956Z,8.12
2017-12-25T03:47:19.934Z,8.04
2017-12-25T03:48:19.912Z,8.07
2017-12-25T03:49:19.895Z,8.10
2017-12-25T03:50:19.877Z,8.08
2017-12-25T03:51:19.860Z,8.08
2017-12-25T03:52:19.835Z,8.10
2017-12-25T03:53:19.822Z,8.10
2017-12-25T03:54:19.798Z,8.08
2017-12-25T03:55:19.788Z,8.00
2017-12-25T03:56:19.754Z,8.02
2017-12-25T03:57:19.744Z,8.05
2017-12-25T03:58:19.715Z,8.04
2017-12-25T03:59:19.703Z,8.02
2017-12-25T04:00:19.680Z,8.01
2017-12-25T04:01:19.661Z,7.98
2017-12-25T04:02:19.641Z,7.98
2017-12-25T04:03:19.619Z,8.01
2017-12-25T04:04:19.625Z,7.98
2017-12-25T04:05:19.577Z,8.02
2017-12-25T04:06:19.559Z,7.98
2017-12-25T04:07:19.540Z,7.98
2017-12-25T04:08:19.518Z,8.04
2017-12-25T04:09:19.499Z,8.04
2017-12-25T04:10:19.487Z,8.01
2017-12-25T04:11:19.460Z,8.01
2017-12-25T04:12:19.447Z,8.00
2017-12-25T04:13:19.422Z,8.00
2017-12-25T04:14:19.403Z,8.01
2017-12-25T04:15:19.382Z,8.00
2017-12-25T04:16:19.370Z,8.01
2017-12-25T04:17:19.344Z,7.95
2017-12-25T04:18:19.320Z,7.98
2017-12-25T04:19:19.302Z,7.97
2017-12-25T04:20:19.293Z,7.97
2017-12-25T04:21:19.264Z,8.05
2017-12-25T04:22:19.245Z,8.04
2017-12-25T04:23:19.224Z,8.00
2017-12-25T04:24:19.209Z,7.98
2017-12-25T04:25:19.187Z,8.00
2017-12-25T04:26:19.173Z,8.01
2017-12-25T04:27:19.145Z,7.95
2017-12-25T04:28:19.129Z,8.01
2017-12-25T04:29:19.107Z,8.05
2017-12-25T04:30:19.091Z,8.01
2017-12-25T04:31:19.070Z,8.02
2017-12-25T04:32:19.055Z,8.01
2017-12-25T04:33:19.026Z,8.01
2017-12-25T04:34:19.011Z,7.98
2017-12-25T04:35:18.990Z,7.98
2017-12-25T04:36:18.970Z,7.98
2017-12-25T04:37:18.950Z,8.00
2017-12-25T04:38:18.929Z,8.01
2017-12-25T04:39:18.909Z,8.01
2017-12-25T04:40:18.891Z,7.97
2017-12-25T04:41:18.874Z,8.01
2017-12-25T04:42:18.855Z,8.07
2017-12-25T04:43:18.833Z,7.97
2017-12-25T04:44:18.813Z,8.01
2017-12-25T04:45:18.797Z,7.97
2017-12-25T04:46:18.775Z,8.00
2017-12-25T04:47:18.756Z,8.01
2017-12-25T04:48:18.737Z,7.98
2017-12-25T04:49:18.721Z,7.95
2017-12-25T04:50:18.695Z,7.95
2017-12-25T04:51:18.681Z,7.92
2017-12-25T04:52:18.657Z,7.97
2017-12-25T04:53:18.640Z,8.00
2017-12-25T04:54:18.621Z,8.02
2017-12-25T04:55:18.599Z,7.89
2017-12-25T04:56:18.578Z,7.95
2017-12-25T04:57:18.559Z,7.97
2017-12-25T04:58:18.539Z,7.92
2017-12-25T04:59:18.518Z,7.95
2017-12-25T05:00:18.502Z,7.92
2017-12-25T05:01:18.478Z,7.97
2017-12-25T05:02:18.456Z,7.93
2017-12-25T05:03:18.439Z,7.95
2017-12-25T05:04:18.420Z,8.02
2017-12-25T05:05:18.400Z,7.93
2017-12-25T05:06:18.379Z,7.90
2017-12-25T05:07:18.359Z,7.98
2017-12-25T05:08:18.346Z,7.93
2017-12-25T05:09:18.318Z,7.97
2017-12-25T05:10:18.304Z,7.98
2017-12-25T05:11:18.282Z,7.93
2017-12-25T05:12:18.261Z,7.95
2017-12-25T05:13:18.243Z,7.92
2017-12-25T05:14:18.229Z,7.92
2017-12-25T05:15:18.202Z,7.98
2017-12-25T05:16:18.184Z,7.95
2017-12-25T05:17:18.168Z,7.95
2017-12-25T05:18:18.146Z,7.92
2017-12-25T05:19:18.123Z,7.90
2017-12-25T05:20:18.108Z,7.98
2017-12-25T05:21:18.092Z,7.90
2017-12-25T05:22:18.064Z,7.95
2017-12-25T05:23:18.048Z,8.02
2017-12-25T05:24:18.025Z,7.95
2017-12-25T05:25:18.004Z,7.95
2017-12-25T05:26:17.982Z,7.97
2017-12-25T05:27:17.965Z,7.92
2017-12-25T05:28:17.948Z,7.98
2017-12-25T05:29:17.928Z,7.95
2017-12-25T05:30:17.909Z,7.97
2017-12-25T05:31:17.886Z,7.92
2017-12-25T05:32:17.869Z,7.90
2017-12-25T05:33:17.846Z,7.97
2017-12-25T05:34:17.828Z,7.98
2017-12-25T05:35:17.806Z,8.00
2017-12-25T05:36:17.789Z,8.00
2017-12-25T05:37:17.769Z,8.01
2017-12-25T05:38:17.750Z,7.97
2017-12-25T05:39:17.730Z,7.97
2017-12-25T05:40:17.710Z,7.98
2017-12-25T05:41:17.690Z,7.98
2017-12-25T05:42:17.669Z,7.98
2017-12-25T05:43:17.656Z,8.00
2017-12-25T05:44:17.633Z,8.04
2017-12-25T05:45:17.610Z,7.97
2017-12-25T05:46:17.593Z,7.90
2017-12-25T05:47:17.580Z,7.98
2017-12-25T05:48:17.555Z,7.97
2017-12-25T05:49:17.538Z,7.87
2017-12-25T05:50:17.513Z,7.97
2017-12-25T05:51:17.493Z,7.90
2017-12-25T05:52:17.474Z,7.92
2017-12-25T05:53:17.452Z,7.90
2017-12-25T05:54:17.435Z,7.86
2017-12-25T05:55:17.411Z,8.00
2017-12-25T05:56:17.395Z,7.92
2017-12-25T05:57:17.379Z,7.85
2017-12-25T05:58:17.357Z,7.92
2017-12-25T05:59:17.339Z,7.93
2017-12-25T06:00:17.315Z,7.87
2017-12-25T06:01:17.292Z,7.92
2017-12-25T06:02:17.277Z,7.90
2017-12-25T06:03:17.260Z,7.90
2017-12-25T06:04:17.239Z,7.97
2017-12-25T06:05:17.220Z,7.97
2017-12-25T06:06:17.196Z,7.89
2017-12-25T06:07:17.180Z,7.92
2017-12-25T06:08:17.157Z,7.85
2017-12-25T06:09:17.139Z,7.87
2017-12-25T06:10:17.119Z,7.87
2017-12-25T06:11:17.096Z,7.93
2017-12-25T06:12:17.079Z,7.93
2017-12-25T06:13:17.059Z,7.83
2017-12-25T06:14:17.039Z,7.83
2017-12-25T06:15:17.022Z,7.87
2017-12-25T06:16:16.998Z,7.83
2017-12-25T06:17:16.983Z,7.79
2017-12-25T06:18:16.962Z,7.82
2017-12-25T06:19:16.942Z,7.80
2017-12-25T06:20:16.918Z,7.79
2017-12-25T06:21:16.898Z,7.75
2017-12-25T06:22:16.891Z,7.75
2017-12-25T06:23:16.862Z,7.82
2017-12-25T06:24:16.838Z,7.82
2017-12-25T06:25:16.818Z,7.79
2017-12-25T06:26:16.801Z,7.85
2017-12-25T06:27:16.779Z,7.82
2017-12-25T06:28:16.761Z,7.83
2017-12-25T06:29:16.742Z,7.82
2017-12-25T06:30:16.718Z,7.79
2017-12-25T06:31:16.711Z,7.82
2017-12-25T06:32:16.683Z,7.83
2017-12-25T06:33:16.659Z,7.79
2017-12-25T06:34:16.642Z,7.77
2017-12-25T06:35:16.627Z,7.77
2017-12-25T06:36:16.602Z,7.82
2017-12-25T06:37:16.588Z,7.82
2017-12-25T06:38:16.566Z,7.77
2017-12-25T06:39:16.547Z,7.87
2017-12-25T06:40:16.526Z,7.85
2017-12-25T06:41:16.507Z,7.85
2017-12-25T06:42:16.484Z,7.83
2017-12-25T06:43:16.465Z,7.85
2017-12-25T06:44:16.445Z,7.85
2017-12-25T06:45:16.429Z,7.85
2017-12-25T06:46:16.405Z,7.79
2017-12-25T06:47:16.386Z,7.85
2017-12-25T06:48:16.368Z,7.83
2017-12-25T06:49:16.347Z,7.82
2017-12-25T06:50:16.329Z,7.79
2017-12-25T06:51:16.312Z,7.85
2017-12-25T06:52:16.287Z,7.82
2017-12-25T06:53:16.277Z,7.79
2017-12-25T06:54:16.249Z,7.82
2017-12-25T06:55:16.229Z,7.75
2017-12-25T06:56:16.209Z,7.86
2017-12-25T06:57:16.189Z,7.86
2017-12-25T06:58:16.174Z,7.80
2017-12-25T06:59:16.147Z,7.86
2017-12-25T07:00:16.136Z,7.83
2017-12-25T07:01:16.112Z,7.72
2017-12-25T07:02:16.096Z,7.75
2017-12-25T07:03:16.068Z,7.75
2017-12-25T07:04:16.048Z,7.67
2017-12-25T07:05:16.029Z,7.72
2017-12-25T07:06:16.008Z,7.72
2017-12-25T07:07:15.990Z,7.72
2017-12-25T07:08:15.969Z,7.75
2017-12-25T07:09:15.949Z,7.68
2017-12-25T07:10:15.928Z,7.72
2017-12-25T07:11:15.939Z,7.80
2017-12-25T07:12:15.888Z,7.83
2017-12-25T07:13:15.868Z,7.71
2017-12-25T07:14:15.848Z,7.69
2017-12-25T07:15:15.831Z,7.68
2017-12-25T07:16:15.808Z,7.64
2017-12-25T07:17:15.787Z,7.82
2017-12-25T07:18:15.772Z,7.68
2017-12-25T07:19:15.758Z,7.69
2017-12-25T07:20:15.728Z,7.77
2017-12-25T07:21:15.708Z,7.69
2017-12-25T07:22:15.688Z,7.82
2017-12-25T07:23:15.667Z,7.69
2017-12-25T07:24:15.649Z,7.68
2017-12-25T07:25:15.628Z,7.74
2017-12-25T07:26:15.620Z,7.69
2017-12-25T07:27:15.588Z,7.63
2017-12-25T07:28:15.568Z,7.71
2017-12-25T07:29:15.548Z,7.69
2017-12-25T07:30:15.529Z,7.82
2017-12-25T07:31:15.508Z,7.79
2017-12-25T07:32:15.494Z,7.69
2017-12-25T07:33:15.475Z,7.74
2017-12-25T07:34:15.459Z,7.69
2017-12-25T07:35:15.429Z,7.72
2017-12-25T07:36:15.414Z,7.71
2017-12-25T07:37:15.389Z,7.83
2017-12-25T07:38:15.375Z,7.79
2017-12-25T07:39:15.349Z,7.74
2017-12-25T07:40:15.335Z,7.68
2017-12-25T07:41:15.663Z,7.72
2017-12-25T07:42:15.290Z,7.74
2017-12-25T07:43:15.268Z,7.77
2017-12-25T07:44:15.258Z,7.72
2017-12-25T07:45:15.230Z,7.74
2017-12-25T07:46:15.213Z,7.74
2017-12-25T07:47:15.194Z,7.74
2017-12-25T07:48:15.178Z,7.68
2017-12-25T07:49:15.155Z,7.75
2017-12-25T07:50:15.134Z,7.82
2017-12-25T07:51:15.115Z,7.79
2017-12-25T07:52:15.092Z,7.72
2017-12-25T07:53:15.073Z,7.79
2017-12-25T07:54:15.050Z,7.77
2017-12-25T07:55:15.028Z,7.69
2017-12-25T07:56:15.012Z,7.74
2017-12-25T07:57:14.994Z,7.75
2017-12-25T07:58:14.969Z,7.69
2017-12-25T07:59:14.958Z,7.77
2017-12-25T08:00:14.985Z,7.71
2017-12-25T08:01:14.916Z,7.77
2017-12-25T08:02:14.900Z,7.74
2017-12-25T08:03:14.876Z,7.82
2017-12-25T08:04:14.852Z,7.75
2017-12-25T08:05:14.833Z,7.75
2017-12-25T08:06:14.813Z,7.79
2017-12-25T08:07:14.800Z,7.69
2017-12-25T08:08:14.773Z,7.75
2017-12-25T08:09:14.757Z,7.79
2017-12-25T08:10:14.733Z,7.79
2017-12-25T08:11:14.716Z,7.79
2017-12-25T08:12:14.695Z,7.79
2017-12-25T08:13:14.679Z,7.79
2017-12-25T08:14:14.654Z,7.85
2017-12-25T08:15:14.632Z,7.86
2017-12-25T08:16:14.614Z,7.79
2017-12-25T08:17:14.596Z,7.83
2017-12-25T08:18:14.574Z,7.89
2017-12-25T08:19:14.569Z,7.82
2017-12-25T08:20:14.538Z,7.86
2017-12-25T08:21:14.515Z,7.83
2017-12-25T08:22:14.503Z,7.90
2017-12-25T08:23:14.481Z,7.95
2017-12-25T08:24:14.460Z,7.97
2017-12-25T08:25:14.443Z,7.92
2017-12-25T08:26:14.420Z,7.92
2017-12-25T08:27:14.404Z,7.97
2017-12-25T08:28:14.376Z,7.90
2017-12-25T08:29:14.353Z,7.92
2017-12-25T08:30:14.337Z,7.97
2017-12-25T08:31:14.322Z,7.98
2017-12-25T08:32:14.293Z,8.04
2017-12-25T08:33:14.275Z,7.98
2017-12-25T08:34:14.259Z,8.07
2017-12-25T08:35:14.243Z,7.98
2017-12-25T08:36:14.223Z,8.04
2017-12-25T08:37:14.199Z,7.95
2017-12-25T08:38:14.182Z,7.95
2017-12-25T08:39:14.161Z,7.98
2017-12-25T08:40:14.141Z,8.01
2017-12-25T08:41:14.121Z,8.04
2017-12-25T08:42:14.099Z,7.95
2017-12-25T08:43:14.083Z,8.08
2017-12-25T08:44:14.062Z,8.10
2017-12-25T08:45:14.040Z,7.98
2017-12-25T08:46:14.020Z,8.01
2017-12-25T08:47:14.004Z,8.05
2017-12-25T08:48:13.982Z,8.11
2017-12-25T08:49:13.966Z,8.08
2017-12-25T08:50:13.941Z,8.08
2017-12-25T08:51:13.930Z,8.05
2017-12-25T08:52:13.901Z,8.10
2017-12-25T08:53:13.879Z,8.08
2017-12-25T08:54:13.865Z,8.18
2017-12-25T08:55:13.843Z,8.10
2017-12-25T08:56:13.823Z,8.10
2017-12-25T08:57:13.801Z,8.05
2017-12-25T08:58:13.783Z,8.12
2017-12-25T08:59:13.767Z,8.10
2017-12-25T09:00:13.746Z,8.19
2017-12-25T09:01:13.734Z,8.07
2017-12-25T09:02:13.703Z,8.07
2017-12-25T09:03:13.685Z,8.10
2017-12-25T09:04:13.662Z,8.19
2017-12-25T09:05:13.651Z,8.15
2017-12-25T09:06:13.633Z,8.15
2017-12-25T09:07:13.608Z,8.16
2017-12-25T09:08:13.585Z,8.22
2017-12-25T09:09:13.570Z,8.11
2017-12-25T09:10:13.546Z,8.25
2017-12-25T09:11:13.528Z,8.08
2017-12-25T09:12:13.509Z,8.10
2017-12-25T09:13:13.505Z,8.11
2017-12-25T09:14:13.466Z,8.08
2017-12-25T09:15:13.448Z,8.12
2017-12-25T09:16:13.426Z,8.20
2017-12-25T09:17:13.408Z,8.20
2017-12-25T09:18:13.386Z,8.29
2017-12-25T09:19:13.374Z,8.23
2017-12-25T09:20:13.345Z,8.20
2017-12-25T09:21:13.329Z,8.22
2017-12-25T09:22:13.310Z,8.22
2017-12-25T09:23:13.292Z,8.19
2017-12-25T09:24:13.272Z,8.19
2017-12-25T09:25:13.248Z,8.25
2017-12-25T09:26:13.233Z,8.25
2017-12-25T09:27:13.219Z,8.20
2017-12-25T09:28:13.196Z,8.18
2017-12-25T09:29:13.178Z,8.26
2017-12-25T09:30:13.156Z,8.28
2017-12-25T09:31:13.132Z,8.22
2017-12-25T09:32:13.118Z,8.36
2017-12-25T09:33:13.102Z,8.30
2017-12-25T09:34:13.081Z,8.25
2017-12-25T09:35:13.055Z,8.30
2017-12-25T09:36:13.037Z,8.36
2017-12-25T09:37:13.014Z,8.37
2017-12-25T09:38:13.003Z,8.33
2017-12-25T09:39:12.975Z,8.33
2017-12-25T09:40:12.959Z,8.36
2017-12-25T09:41:12.936Z,8.41
2017-12-25T09:42:12.918Z,8.29
2017-12-25T09:43:12.897Z,8.38
2017-12-25T09:44:12.878Z,8.37
2017-12-25T09:45:12.857Z,8.40
2017-12-25T09:46:12.840Z,8.43
2017-12-25T09:47:12.821Z,8.36
2017-12-25T09:48:12.799Z,8.36
2017-12-25T09:49:12.779Z,8.30
2017-12-25T09:50:12.764Z,8.37
2017-12-25T09:51:12.741Z,8.38
2017-12-25T09:52:12.722Z,8.40
2017-12-25T09:53:12.715Z,8.29
2017-12-25T09:54:12.684Z,8.34
2017-12-25T09:55:12.668Z,8.37
2017-12-25T09:56:12.649Z,8.37
2017-12-25T09:57:12.628Z,8.30
2017-12-25T09:58:12.606Z,8.30
2017-12-25T09:59:12.584Z,8.30
2017-12-25T10:00:12.562Z,8.29
2017-12-25T10:01:12.546Z,8.37
2017-12-25T10:02:12.535Z,8.30
2017-12-25T10:03:12.506Z,8.30
2017-12-25T10:04:12.491Z,8.37
2017-12-25T10:05:12.467Z,8.29
2017-12-25T10:06:12.451Z,8.34
2017-12-25T10:07:12.429Z,8.30
2017-12-25T10:08:12.416Z,8.25
2017-12-25T10:09:12.387Z,8.23
2017-12-25T10:10:12.368Z,8.25
2017-12-25T10:11:12.350Z,8.26
2017-12-25T10:12:12.328Z,8.26
2017-12-25T10:13:12.312Z,8.22
2017-12-25T10:14:12.288Z,8.20
2017-12-25T10:15:12.280Z,8.20
2017-12-25T10:16:12.254Z,8.28
2017-12-25T10:17:12.228Z,8.23
2017-12-25T10:18:12.214Z,8.18
2017-12-25T10:19:12.191Z,8.23
2017-12-25T10:20:12.176Z,8.23
2017-12-25T10:21:12.150Z,8.23
2017-12-25T10:22:12.137Z,8.26
2017-12-25T10:23:12.117Z,8.20
2017-12-25T10:24:12.094Z,8.22
2017-12-25T10:25:12.086Z,8.19
2017-12-25T10:26:12.054Z,8.20
2017-12-25T10:27:12.042Z,8.25
2017-12-25T10:28:12.021Z,8.26
2017-12-25T10:29:12.002Z,8.20
2017-12-25T10:30:11.978Z,8.20
2017-12-25T10:31:11.969Z,8.29
2017-12-25T10:32:11.936Z,8.25
2017-12-25T10:33:11.917Z,8.26
2017-12-25T10:34:11.898Z,8.23
2017-12-25T10:35:11.877Z,8.25
2017-12-25T10:36:11.858Z,8.30
2017-12-25T10:37:11.839Z,8.28
2017-12-25T10:38:11.825Z,8.25
2017-12-25T10:39:11.800Z,8.29
2017-12-25T10:40:11.787Z,8.26
2017-12-25T10:41:11.767Z,8.15
2017-12-25T10:42:11.749Z,8.26
2017-12-25T10:43:11.727Z,8.20
2017-12-25T10:44:11.710Z,8.19
2017-12-25T10:45:11.686Z,8.19
2017-12-25T10:46:11.669Z,8.16
2017-12-25T10:47:11.644Z,8.15
2017-12-25T10:48:11.640Z,8.19
2017-12-25T10:49:11.605Z,8.20
2017-12-25T10:50:11.589Z,8.22
2017-12-25T10:51:11.567Z,8.25
2017-12-25T10:52:11.544Z,8.23
2017-12-25T10:53:11.527Z,8.25
2017-12-25T10:54:11.515Z,8.29
2017-12-25T10:55:11.487Z,8.20
2017-12-25T10:56:11.473Z,8.33
2017-12-25T10:57:11.448Z,8.25
2017-12-25T10:58:11.426Z,8.28
2017-12-25T10:59:11.406Z,8.25
2017-12-25T11:00:11.401Z,8.25
2017-12-25T11:01:11.370Z,8.25
2017-12-25T11:02:11.349Z,8.25
2017-12-25T11:03:11.332Z,8.33
2017-12-25T11:04:11.315Z,8.28
2017-12-25T11:05:11.287Z,8.30
2017-12-25T11:06:11.291Z,8.33
2017-12-25T11:07:11.258Z,8.30
2017-12-25T11:08:11.232Z,8.30
2017-12-25T11:09:11.218Z,8.29
2017-12-25T11:10:11.198Z,8.30
2017-12-25T11:11:11.173Z,8.33
2017-12-25T11:12:11.154Z,8.33
2017-12-25T11:13:11.136Z,8.29
2017-12-25T11:14:11.113Z,8.30
2017-12-25T11:15:11.102Z,8.34
2017-12-25T11:16:11.075Z,8.26
2017-12-25T11:17:11.059Z,8.26
2017-12-25T11:18:11.038Z,8.30
2017-12-25T11:19:11.017Z,8.33
2017-12-25T11:20:10.995Z,8.34
2017-12-25T11:21:10.977Z,8.33
2017-12-25T11:22:10.961Z,8.30
2017-12-25T11:23:10.942Z,8.37
2017-12-25T11:24:10.919Z,8.40
2017-12-25T11:25:10.902Z,8.37
2017-12-25T11:26:10.878Z,8.38
2017-12-25T11:27:10.857Z,8.37
2017-12-25T11:28:10.839Z,8.34
2017-12-25T11:29:10.858Z,8.41
2017-12-25T11:30:10.800Z,8.28
2017-12-25T11:31:10.778Z,8.37
2017-12-25T11:32:10.762Z,8.34
2017-12-25T11:33:10.739Z,8.34
2017-12-25T11:34:10.718Z,8.37
2017-12-25T11:35:10.700Z,8.34
2017-12-25T11:36:10.690Z,8.30
2017-12-25T11:37:10.672Z,8.25
2017-12-25T11:38:10.654Z,8.28
2017-12-25T11:39:10.640Z,8.26
2017-12-25T11:40:10.610Z,8.25
2017-12-25T11:41:10.583Z,8.16
2017-12-25T11:42:10.566Z,8.25
2017-12-25T11:43:10.544Z,8.20
2017-12-25T11:44:10.536Z,8.19
2017-12-25T11:45:10.508Z,8.16
2017-12-25T11:46:10.489Z,8.16
2017-12-25T11:47:10.483Z,8.26
2017-12-25T11:48:10.467Z,8.18
2017-12-25T11:49:10.426Z,8.20
2017-12-25T11:50:10.410Z,8.18
2017-12-25T11:51:10.385Z,8.22
2017-12-25T11:52:10.379Z,8.20
2017-12-25T11:53:10.365Z,8.22
2017-12-25T11:54:10.332Z,8.12
2017-12-25T11:55:10.320Z,8.20
2017-12-25T11:56:10.289Z,8.20
2017-12-25T11:58:10.250Z,8.18
2017-12-25T11:59:10.231Z,8.11
2017-12-25T12:00:10.208Z,8.20
2017-12-25T12:01:10.195Z,8.19
2017-12-25T12:02:10.167Z,8.25
2017-12-25T12:03:10.150Z,8.11
2017-12-25T12:04:10.130Z,8.07
2017-12-25T12:05:10.114Z,8.11
2017-12-25T12:06:10.090Z,8.11
2017-12-25T12:07:10.077Z,8.20
2017-12-25T12:08:10.051Z,8.11
2017-12-25T12:09:10.039Z,8.07
2017-12-25T12:10:10.013Z,8.16
2017-12-25T12:11:09.996Z,8.15
2017-12-25T12:12:09.974Z,8.22
2017-12-25T12:13:09.959Z,8.12
2017-12-25T12:14:09.934Z,8.16
2017-12-25T12:15:09.914Z,8.10
2017-12-25T12:16:09.905Z,8.07
2017-12-25T12:17:09.876Z,8.16
2017-12-25T12:18:09.856Z,8.18
2017-12-25T12:19:09.845Z,8.10
2017-12-25T12:20:09.812Z,8.16
2017-12-25T12:21:09.798Z,8.16
2017-12-25T12:22:09.774Z,8.11
2017-12-25T12:23:09.757Z,8.10
2017-12-25T12:24:09.749Z,8.16
2017-12-25T12:25:09.733Z,8.07
2017-12-25T12:26:09.696Z,8.15
2017-12-25T12:27:09.678Z,8.15
2017-12-25T12:28:09.658Z,8.19
2017-12-25T12:29:09.635Z,8.16
2017-12-25T12:30:09.623Z,8.08
2017-12-25T12:31:09.613Z,8.12
2017-12-25T12:32:09.579Z,8.07
2017-12-25T12:33:09.561Z,8.11
2017-12-25T12:34:09.538Z,8.15
2017-12-25T12:35:09.537Z,8.12
2017-12-25T12:36:09.507Z,8.11
2017-12-25T12:37:09.477Z,8.11
2017-12-25T12:38:09.464Z,8.16
2017-12-25T12:39:09.441Z,8.18
2017-12-25T12:40:09.429Z,8.18
2017-12-25T12:41:09.404Z,8.12
2017-12-25T12:42:09.390Z,8.19
2017-12-25T12:43:09.362Z,8.11
2017-12-25T12:44:09.350Z,8.15
2017-12-25T12:45:09.331Z,8.12
2017-12-25T12:46:09.308Z,8.12
2017-12-25T12:47:09.287Z,8.18
2017-12-25T12:48:09.271Z,8.12
2017-12-25T12:49:09.245Z,8.18
2017-12-25T12:50:09.226Z,8.20
2017-12-25T12:51:09.206Z,8.16
2017-12-25T12:52:09.197Z,8.12
2017-12-25T12:53:09.170Z,8.15
2017-12-25T12:54:09.150Z,8.11
2017-12-25T12:55:09.133Z,8.16
2017-12-25T12:56:09.110Z,8.08
2017-12-25T12:57:09.087Z,8.12
2017-12-25T12:58:09.076Z,8.05
2017-12-25T12:59:09.049Z,8.18
2017-12-25T13:00:09.029Z,8.11
2017-12-25T13:01:09.006Z,8.18
2017-12-25T13:02:08.997Z,8.12
2017-12-25T13:03:08.974Z,8.07
2017-12-25T13:04:08.948Z,8.08
2017-12-25T13:05:08.929Z,8.11
2017-12-25T13:06:08.905Z,8.10
2017-12-25T13:07:08.889Z,8.16
2017-12-25T13:08:08.873Z,8.11
2017-12-25T13:09:08.851Z,8.05
2017-12-25T13:10:08.829Z,8.05
2017-12-25T13:11:08.809Z,8.02
2017-12-25T13:12:08.791Z,8.08
2017-12-25T13:13:08.770Z,8.02
2017-12-25T13:14:08.750Z,8.08
2017-12-25T13:15:08.729Z,8.02
2017-12-25T13:16:08.711Z,8.07
2017-12-25T13:17:08.691Z,8.11
2017-12-25T13:18:08.682Z,8.08
2017-12-25T13:19:08.649Z,8.05